Time;durP1;ratioP1;P1;durP2;ratioP2;P2;SDS_P1;SDS_P2;PMS_P1;PMS_P2;Temp;Humidity;BMP_temperature;BMP_pressure;BME280_temperature;BME280_humidity;BME280_pressure;Samples;Min_cycle;Max_cycle;Signal;HPM_P1;HPM_P2
2022/02/16 00:01:44;;;;;;;25.35;8.98;;;;;;;2.94;96.29;98133.03;5065169;28;20013;-75
2022/02/16 00:04:10;;;;;;;31.65;10.57;;;;;;;2.93;96.09;98133.94;5047209;28;20029;-76
2022/02/16 00:06:35;;;;;;;16.38;6.47;;;;;;;3.03;96.13;98149.16;5064855;28;20032;-75
2022/02/16 00:09:01;;;;;;;40.58;12.73;;;;;;;2.99;96.07;98142.41;5065055;28;20256;-75
2022/02/16 00:11:26;;;;;;;42.53;13.95;;;;;;;2.97;96.37;98140.69;5064916;28;20057;-76
2022/02/16 00:13:51;;;;;;;39.15;9.20;;;;;;;3.01;96.32;98138.09;5065004;28;20029;-76
2022/02/16 00:16:17;;;;;;;10.18;5.22;;;;;;;2.99;95.95;98132.16;5064950;28;20035;-76
2022/02/16 00:18:42;;;;;;;14.38;6.80;;;;;;;2.94;96.22;98133.03;5064691;28;20033;-74
2022/02/16 00:21:08;;;;;;;24.52;9.02;;;;;;;3.00;96.20;98141.53;5064680;28;20021;-76
2022/02/16 00:23:33;;;;;;;23.70;7.45;;;;;;;2.94;96.33;98121.97;5046536;28;20021;-75
2022/02/16 00:26:02;;;;;;;23.25;7.07;;;;;;;2.93;96.36;98130.50;5064510;28;20021;-74
2022/02/16 00:28:27;;;;;;;14.18;4.78;;;;;;;2.95;96.15;98121.09;5064827;28;20075;-74
2022/02/16 00:30:53;;;;;;;24.33;8.45;;;;;;;2.97;96.17;98135.56;5064683;28;20025;-75
2022/02/16 00:33:18;;;;;;;23.83;7.72;;;;;;;2.97;96.11;98135.56;5046779;28;20521;-74
2022/02/16 00:35:43;;;;;;;12.90;5.57;;;;;;;2.98;96.18;98138.97;5064179;28;20021;-74
2022/02/16 00:38:09;;;;;;;32.42;9.13;;;;;;;3.01;96.23;98135.50;5064531;28;20025;-74
2022/02/16 00:40:34;;;;;;;19.77;6.93;;;;;;;2.99;96.26;98145.78;5064548;28;20025;-74
2022/02/16 00:42:59;;;;;;;28.60;9.65;;;;;;;3.00;96.20;98141.53;5064550;28;20028;-74
2022/02/16 00:45:25;;;;;;;18.23;8.13;;;;;;;2.99;96.25;98140.66;5064189;28;20040;-74
2022/02/16 00:47:50;;;;;;;25.38;7.70;;;;;;;2.99;96.35;98140.66;5046779;28;20441;-75
2022/02/16 00:50:16;;;;;;;38.08;8.90;;;;;;;3.00;96.20;98124.44;5064059;28;20052;-75
2022/02/16 00:52:41;;;;;;;27.27;9.82;;;;;;;3.02;96.43;98134.66;5064246;28;20080;-74
2022/02/16 00:55:07;;;;;;;36.50;8.68;;;;;;;3.05;96.49;98140.56;5064069;28;20048;-75
2022/02/16 00:57:33;;;;;;;32.58;9.07;;;;;;;3.07;96.25;98132.88;5046203;28;20135;-74
2022/02/16 00:59:58;;;;;;;28.95;10.07;;;;;;;3.12;96.23;98131.09;5064046;28;20036;-74
2022/02/16 01:02:25;;;;;;;18.88;4.85;;;;;;;3.07;96.15;98117.47;5064162;28;20021;-74
2022/02/16 01:04:50;;;;;;;21.02;5.78;;;;;;;3.08;96.12;98134.56;5063877;28;20028;-74
2022/02/16 01:07:15;;;;;;;10.77;3.00;;;;;;;3.05;96.24;98121.81;5064020;28;20389;-73
2022/02/16 01:09:41;;;;;;;12.25;2.83;;;;;;;3.04;96.08;98112.41;5063194;28;20029;-74
2022/02/16 01:12:07;;;;;;;18.63;5.03;;;;;;;3.04;96.08;98127.78;5063892;28;20029;-74
2022/02/16 01:14:32;;;;;;;21.23;7.10;;;;;;;3.07;95.98;98138.84;5063725;28;20238;-73
2022/02/16 01:16:58;;;;;;;19.23;4.88;;;;;;;3.12;96.30;98138.78;5063690;28;20032;-75
2022/02/16 01:19:23;;;;;;;19.48;4.72;;;;;;;3.14;96.38;98134.47;5063528;28;20021;-73
2022/02/16 01:21:49;;;;;;;22.70;4.70;;;;;;;3.14;96.07;98139.63;5063668;28;20017;-74
2022/02/16 01:24:14;;;;;;;25.52;5.18;;;;;;;3.14;96.10;98133.63;5045195;28;20045;-74
2022/02/16 01:26:39;;;;;;;11.00;3.45;;;;;;;3.18;96.11;98138.69;5063539;28;20041;-74
2022/02/16 01:29:05;;;;;;;16.02;2.65;;;;;;;3.20;96.17;98129.25;5063656;28;20233;-73
2022/02/16 01:31:30;;;;;;;21.65;3.72;;;;;;;3.19;96.12;98136.97;5063351;28;20040;-74
2022/02/16 01:33:56;;;;;;;13.30;3.50;;;;;;;3.19;96.25;98131.84;5063319;28;20080;-75
2022/02/16 01:36:21;;;;;;;27.63;6.15;;;;;;;3.24;96.14;98134.34;5063265;28;20032;-73
2022/02/16 01:38:46;;;;;;;32.25;4.13;;;;;;;3.25;96.10;98130.91;5063609;28;20017;-73
2022/02/16 01:41:17;;;;;;;18.65;3.60;;;;;;;3.20;96.05;98129.25;5063230;28;20492;-73
2022/02/16 01:43:47;;;;;;;23.27;4.32;;;;;;;3.26;96.03;98130.03;5063508;28;20036;-73
2022/02/16 01:46:13;;;;;;;21.10;3.67;;;;;;;3.23;96.00;98128.34;5063233;28;20027;-73
2022/02/16 01:48:39;;;;;;;16.90;4.25;;;;;;;3.22;95.85;98129.22;5063634;28;20021;-73
2022/02/16 01:51:04;;;;;;;20.80;4.10;;;;;;;3.22;95.91;98130.09;5063055;28;20135;-74
2022/02/16 01:53:30;;;;;;;25.90;3.63;;;;;;;3.21;95.67;98128.38;5063250;28;20037;-74
2022/02/16 01:55:55;;;;;;;17.65;3.75;;;;;;;3.24;95.68;98124.94;5063359;28;20021;-74
2022/02/16 01:58:21;;;;;;;14.93;3.00;;;;;;;3.24;95.59;98127.50;5063213;28;20098;-74
2022/02/16 02:00:46;;;;;;;30.83;4.15;;;;;;;3.25;95.73;98126.63;5063374;28;20032;-75
2022/02/16 02:03:11;;;;;;;22.13;4.07;;;;;;;3.22;95.66;98121.53;5063159;28;20040;-75
2022/02/16 02:05:40;;;;;;;25.23;4.00;;;;;;;3.20;95.67;98113.88;5062466;28;20028;-75
2022/02/16 02:08:05;;;;;;;23.58;3.40;;;;;;;3.21;95.77;98114.72;5063037;28;20025;-74
2022/02/16 02:10:31;;;;;;;23.23;3.53;;;;;;;3.27;95.73;98106.09;5062864;28;20067;-75
2022/02/16 02:12:57;;;;;;;16.67;2.00;;;;;;;3.28;95.71;98113.75;5062839;28;20029;-74
2022/02/16 02:15:23;;;;;;;21.35;3.67;;;;;;;3.32;95.82;98123.06;5044868;28;20070;-75
2022/02/16 02:17:49;;;;;;;28.42;3.88;;;;;;;3.29;95.77;98109.47;5062697;28;20024;-75
2022/02/16 02:20:23;;;;;;;20.17;3.80;;;;;;;3.32;95.72;98112.81;5062782;28;20430;-75
2022/02/16 02:22:48;;;;;;;18.95;3.38;;;;;;;3.31;95.60;98112.84;5067107;28;20115;-75
2022/02/16 02:25:15;;;;;;;18.85;2.95;;;;;;;3.30;95.61;98124.84;5066978;28;20497;-75
2022/02/16 02:27:41;;;;;;;21.75;2.95;;;;;;;3.20;95.62;98113.88;5049075;28;20021;-75
2022/02/16 02:30:07;;;;;;;21.52;4.05;;;;;;;3.24;95.54;98109.56;5067093;28;20025;-75
2022/02/16 02:32:33;;;;;;;19.75;2.92;;;;;;;3.22;95.38;98111.28;5067127;28;20020;-76
2022/02/16 02:34:58;;;;;;;10.15;2.60;;;;;;;3.19;95.16;98111.34;5066472;28;20055;-75
2022/02/16 02:37:23;;;;;;;10.70;1.92;;;;;;;3.12;95.05;98110.56;5067431;28;20021;-76
2022/02/16 02:39:48;;;;;;;9.65;2.00;;;;;;;3.03;94.85;98110.72;5067097;28;20084;-76
2022/02/16 02:42:14;;;;;;;11.05;2.00;;;;;;;3.04;94.86;98118.38;5066843;28;20122;-75
2022/02/16 02:44:39;;;;;;;9.40;2.30;;;;;;;3.04;95.02;98122.66;5067111;28;20084;-75
2022/02/16 02:47:05;;;;;;;18.10;3.22;;;;;;;2.95;94.81;98110.84;5066874;28;20505;-76
2022/02/16 02:49:30;;;;;;;8.35;1.58;;;;;;;2.98;94.90;98115.91;5048457;28;20100;-76
2022/02/16 02:51:56;;;;;;;10.15;2.00;;;;;;;3.01;94.51;98128.69;5066740;28;20021;-76
2022/02/16 02:54:21;;;;;;;21.33;3.13;;;;;;;2.99;94.83;98124.47;5066629;28;20457;-76
2022/02/16 02:56:46;;;;;;;11.85;2.25;;;;;;;3.02;94.77;98132.09;5066336;28;20035;-75
2022/02/16 02:59:13;;;;;;;12.85;1.50;;;;;;;2.96;94.65;98117.63;5066357;28;20021;-75
2022/02/16 03:01:42;;;;;;;17.73;2.60;;;;;;;2.99;94.41;98125.28;5066202;28;20067;-74
2022/02/16 03:04:08;;;;;;;13.68;2.05;;;;;;;2.98;94.62;98128.72;5066133;28;20029;-75
2022/02/16 03:06:33;;;;;;;20.13;2.95;;;;;;;2.99;94.45;98115.03;5066011;28;20081;-75
2022/02/16 03:08:59;;;;;;;22.60;2.65;;;;;;;3.00;94.08;98133.84;5066112;28;20266;-75
2022/02/16 03:11:24;;;;;;;11.38;2.03;;;;;;;2.97;94.15;98127.88;5066192;28;20032;-75
2022/02/16 03:13:50;;;;;;;11.63;2.17;;;;;;;2.94;94.20;98115.09;5066124;28;20016;-75
2022/02/16 03:16:16;;;;;;;11.35;2.22;;;;;;;2.94;94.07;98127.91;5065878;28;20029;-74
2022/02/16 03:18:41;;;;;;;14.23;2.28;;;;;;;2.95;94.09;98121.09;5065905;28;20029;-75
2022/02/16 03:21:06;;;;;;;12.68;2.00;;;;;;;2.92;94.35;98093.78;5065758;28;20025;-74
2022/02/16 03:23:32;;;;;;;5.20;1.52;;;;;;;2.93;93.54;98104.88;5066043;28;20163;-75
2022/02/16 03:25:57;;;;;;;7.13;1.92;;;;;;;2.91;93.64;98106.59;5065332;28;20049;-75
2022/02/16 03:28:23;;;;;;;14.90;2.65;;;;;;;2.90;93.68;98110.03;5046997;28;20049;-75
2022/02/16 03:30:48;;;;;;;9.90;2.00;;;;;;;2.85;93.79;98117.78;5064745;28;20025;-75
2022/02/16 03:33:14;;;;;;;7.80;2.45;;;;;;;2.81;93.81;98104.16;5064994;28;20032;-75
2022/02/16 03:35:39;;;;;;;13.13;2.13;;;;;;;2.87;93.50;98116.06;5065245;28;20042;-75
2022/02/16 03:38:04;;;;;;;9.63;2.13;;;;;;;2.84;93.65;98100.75;5065708;28;20025;-76
2022/02/16 03:40:30;;;;;;;12.90;2.20;;;;;;;2.81;93.59;98098.22;5065478;28;20053;-76
2022/02/16 03:42:59;;;;;;;8.45;1.50;;;;;;;2.81;93.70;98121.28;5065310;28;20024;-76
2022/02/16 03:45:26;;;;;;;17.15;2.50;;;;;;;2.80;93.61;98122.13;5065242;28;20017;-75
2022/02/16 03:47:52;;;;;;;12.30;2.17;;;;;;;2.77;93.47;98114.50;5065313;28;20102;-75
2022/02/16 03:50:18;;;;;;;5.75;1.35;;;;;;;2.71;94.03;98108.59;5064820;28;20067;-76
2022/02/16 03:52:43;;;;;;;14.15;2.30;;;;;;;2.73;93.43;98129.91;5047375;28;20032;-76
2022/02/16 03:55:09;;;;;;;24.10;2.10;;;;;;;2.69;93.64;98120.56;5065142;28;20083;-76
2022/02/16 03:57:35;;;;;;;14.35;1.80;;;;;;;2.73;93.68;98129.06;5065185;28;20032;-76
2022/02/16 04:00:00;;;;;;;8.30;1.88;;;;;;;2.75;93.68;98129.88;5046624;28;20021;-76
2022/02/16 04:02:25;;;;;;;13.55;1.85;;;;;;;2.78;93.93;98118.75;5064275;28;20105;-76
2022/02/16 04:04:51;;;;;;;12.77;2.05;;;;;;;2.81;93.91;98121.28;5045905;28;20028;-76
2022/02/16 04:07:16;;;;;;;14.68;2.60;;;;;;;2.83;93.77;98122.94;5063954;28;20032;-76
2022/02/16 04:09:41;;;;;;;12.68;2.33;;;;;;;2.87;94.28;98122.91;5064083;28;20329;-77
2022/02/16 04:12:09;;;;;;;15.32;2.53;;;;;;;2.89;93.90;98123.75;5064322;28;20130;-77
2022/02/16 04:14:34;;;;;;;7.75;1.60;;;;;;;2.91;93.77;98130.53;5064941;28;20032;-76
2022/02/16 04:17:00;;;;;;;11.88;2.42;;;;;;;2.99;93.52;98125.28;5064927;28;20021;-76
2022/02/16 04:19:25;;;;;;;14.90;2.03;;;;;;;3.01;93.80;98118.44;5064674;28;20029;-77
2022/02/16 04:21:51;;;;;;;15.45;2.13;;;;;;;2.97;93.69;98115.06;5064964;28;20544;-77
2022/02/16 04:24:16;;;;;;;11.82;2.83;;;;;;;2.95;93.40;98119.38;5064493;28;20044;-77
2022/02/16 04:26:41;;;;;;;17.35;3.08;;;;;;;2.99;93.45;98114.22;5064601;28;20096;-77
2022/02/16 04:29:07;;;;;;;4.72;1.00;;;;;;;3.07;93.57;98122.59;5064477;28;20029;-73
2022/02/16 04:31:32;;;;;;;11.60;2.10;;;;;;;3.01;92.89;98115.00;5064309;28;20053;-75
2022/02/16 04:33:57;;;;;;;22.73;3.00;;;;;;;3.02;92.93;98129.53;5064391;28;20029;-75
2022/02/16 04:36:25;;;;;;;10.27;2.38;;;;;;;3.02;92.62;98134.66;5046473;28;20013;-75
2022/02/16 04:38:55;;;;;;;13.63;2.60;;;;;;;2.95;92.25;98124.50;5064586;28;20033;-75
2022/02/16 04:41:21;;;;;;;7.68;2.20;;;;;;;2.70;91.21;98099.19;5064347;28;20017;-74
2022/02/16 04:43:47;;;;;;;8.23;1.50;;;;;;;2.79;90.75;98128.13;5063841;28;20029;-73
2022/02/16 04:46:12;;;;;;;6.57;1.80;;;;;;;2.71;91.29;98123.97;5063757;28;20111;-71
2022/02/16 04:48:38;;;;;;;9.93;1.50;;;;;;;2.65;90.79;98116.34;5064402;28;20089;-71
2022/02/16 04:51:04;;;;;;;13.13;1.67;;;;;;;2.48;90.70;98093.50;5063879;28;20081;-71
2022/02/16 04:53:32;;;;;;;7.47;1.92;;;;;;;2.56;90.94;98106.22;5064008;28;20028;-71
2022/02/16 04:55:58;;;;;;;13.52;2.10;;;;;;;2.51;90.87;98108.03;5045969;28;20493;-72
2022/02/16 04:58:24;;;;;;;18.05;3.00;;;;;;;2.45;91.28;98099.53;5064077;28;20029;-73
2022/02/16 05:00:49;;;;;;;14.40;3.58;;;;;;;2.51;91.30;98100.34;5046034;28;20043;-72
2022/02/16 05:03:15;;;;;;;17.05;3.33;;;;;;;2.36;91.60;98084.28;5064032;28;20017;-73
2022/02/16 05:05:40;;;;;;;10.07;2.05;;;;;;;2.34;91.33;98088.56;5063507;28;20382;-72
2022/02/16 05:08:05;;;;;;;21.08;3.20;;;;;;;2.41;91.31;98105.53;5045995;28;20065;-73
2022/02/16 05:10:31;;;;;;;24.23;3.17;;;;;;;2.42;91.74;98103.84;5063534;28;20028;-72
2022/02/16 05:12:56;;;;;;;17.90;2.88;;;;;;;2.37;91.95;98101.34;5063555;28;20473;-73
2022/02/16 05:15:22;;;;;;;14.20;2.72;;;;;;;2.27;92.04;98092.09;5063514;28;20059;-72
2022/02/16 05:17:47;;;;;;;14.35;2.35;;;;;;;2.34;92.24;98102.22;5063566;28;20029;-72
2022/02/16 05:20:13;;;;;;;27.10;3.40;;;;;;;2.35;92.29;98103.06;5063151;28;20047;-73
2022/02/16 05:22:38;;;;;;;21.05;2.45;;;;;;;2.32;92.49;98103.09;5062388;28;20063;-73
2022/02/16 05:25:04;;;;;;;20.67;4.25;;;;;;;2.26;92.51;98098.91;5062499;28;20045;-74
2022/02/16 05:27:29;;;;;;;14.93;2.97;;;;;;;2.26;92.23;98092.94;5044697;28;20031;-74
2022/02/16 05:29:55;;;;;;;28.67;3.40;;;;;;;2.23;92.46;98086.16;5062977;28;20025;-73
2022/02/16 05:32:20;;;;;;;13.32;2.88;;;;;;;2.20;92.34;98088.75;5045611;28;20021;-74
2022/02/16 05:34:46;;;;;;;9.35;2.22;;;;;;;2.21;92.42;98100.66;5063228;28;20017;-74
2022/02/16 05:37:11;;;;;;;22.80;2.65;;;;;;;2.23;92.34;98093.84;5063353;28;20052;-73
2022/02/16 05:39:36;;;;;;;17.20;2.95;;;;;;;2.15;92.03;98093.06;5045551;28;20037;-72
2022/02/16 05:42:03;;;;;;;10.82;2.88;;;;;;;2.19;92.03;98098.13;5063328;28;20021;-72
2022/02/16 05:44:29;;;;;;;13.55;3.15;;;;;;;2.18;91.92;98091.31;5063445;28;20021;-73
2022/02/16 05:46:54;;;;;;;24.52;4.55;;;;;;;2.17;91.79;98086.22;5063432;28;20078;-73
2022/02/16 05:49:19;;;;;;;11.38;1.95;;;;;;;2.26;91.62;98088.66;5063215;28;20029;-72
2022/02/16 05:51:45;;;;;;;6.07;1.42;;;;;;;2.22;91.62;98094.72;5045213;28;20025;-72
2022/02/16 05:54:11;;;;;;;14.50;2.28;;;;;;;2.21;91.86;98087.88;5063486;28;20028;-72
2022/02/16 05:56:37;;;;;;;17.30;2.17;;;;;;;2.19;91.80;98093.00;5067644;28;20035;-72
2022/02/16 05:59:02;;;;;;;9.57;3.08;;;;;;;2.24;91.98;98085.28;5069965;28;20056;-72
2022/02/16 06:01:28;;;;;;;14.95;3.17;;;;;;;2.23;91.94;98084.44;5069774;28;20028;-72
2022/02/16 06:03:53;;;;;;;14.07;2.78;;;;;;;2.16;92.27;98061.47;5069787;28;20056;-74
2022/02/16 06:06:19;;;;;;;15.95;3.25;;;;;;;2.21;92.32;98068.25;5069363;28;20044;-73
2022/02/16 06:08:45;;;;;;;18.75;2.65;;;;;;;2.29;92.54;98077.53;5069809;28;20025;-70
2022/02/16 06:11:10;;;;;;;13.77;2.95;;;;;;;2.35;92.30;98080.00;5069475;28;20025;-72
2022/02/16 06:13:36;;;;;;;13.48;2.75;;;;;;;2.33;92.18;98086.88;5051810;28;20031;-72
2022/02/16 06:16:02;;;;;;;24.95;4.65;;;;;;;2.27;92.43;98079.28;5069683;28;20025;-70
2022/02/16 06:18:28;;;;;;;20.58;3.45;;;;;;;2.26;92.44;98080.13;5069199;28;20024;-71
2022/02/16 06:20:55;;;;;;;27.30;4.82;;;;;;;2.26;92.63;98092.94;5069011;28;20051;-70
2022/02/16 06:23:20;;;;;;;20.38;3.22;;;;;;;2.26;92.80;98088.66;5069308;28;20021;-70
2022/02/16 06:25:45;;;;;;;22.65;3.65;;;;;;;2.19;92.91;98075.09;5069156;28;20049;-71
2022/02/16 06:28:11;;;;;;;29.17;3.40;;;;;;;2.25;93.30;98060.53;5051547;28;20071;-70
2022/02/16 06:30:36;;;;;;;22.25;4.35;;;;;;;2.45;93.12;98094.41;5069257;28;20028;-70
2022/02/16 06:33:01;;;;;;;28.98;4.80;;;;;;;2.49;92.96;98084.97;5069469;28;20051;-71
2022/02/16 06:35:27;;;;;;;48.75;3.50;;;;;;;2.46;92.82;98082.47;5068455;28;20059;-73
2022/02/16 06:37:52;;;;;;;42.80;5.47;;;;;;;2.51;92.93;98082.41;5068888;28;20056;-78
2022/02/16 06:40:18;;;;;;;32.33;3.83;;;;;;;2.54;92.88;98082.34;5051576;28;20017;-70
2022/02/16 06:42:43;;;;;;;34.65;4.05;;;;;;;2.60;92.74;98090.78;5069627;28;20076;-70
2022/02/16 06:45:10;;;;;;;20.05;3.25;;;;;;;2.62;92.96;98077.94;5069641;28;20017;-70
2022/02/16 06:47:36;;;;;;;50.10;5.20;;;;;;;2.52;92.54;98053.34;5051014;28;20074;-69
2022/02/16 06:50:02;;;;;;;31.30;5.20;;;;;;;2.73;92.64;98072.72;5051092;28;20029;-71
2022/02/16 06:52:28;;;;;;;22.73;3.70;;;;;;;2.75;92.62;98076.06;5069388;28;20037;-70
2022/02/16 06:54:54;;;;;;;29.58;3.97;;;;;;;2.84;92.85;98072.53;5069312;28;20028;-70
2022/02/16 06:57:19;;;;;;;34.03;3.90;;;;;;;2.91;93.19;98065.59;5069066;28;20079;-69
2022/02/16 06:59:45;;;;;;;35.92;6.05;;;;;;;2.96;92.88;98067.22;5069210;28;20419;-69
2022/02/16 07:02:10;;;;;;;16.92;3.72;;;;;;;3.00;93.07;98069.75;5069460;28;20059;-70
2022/02/16 07:04:36;;;;;;;27.75;3.85;;;;;;;3.06;92.88;98069.66;5068970;28;20021;-70
2022/02/16 07:07:02;;;;;;;13.07;2.72;;;;;;;3.10;93.08;98069.56;5067647;28;20025;-70
2022/02/16 07:09:27;;;;;;;36.55;5.32;;;;;;;3.13;93.08;98063.53;5065759;28;20044;-71
2022/02/16 07:11:53;;;;;;;26.10;3.42;;;;;;;3.18;92.80;98066.06;5066001;28;20020;-69
2022/02/16 07:14:22;;;;;;;36.55;5.95;;;;;;;3.25;92.70;98059.94;5066356;28;20021;-69
2022/02/16 07:16:47;;;;;;;30.42;4.07;;;;;;;3.24;92.65;98063.41;5066134;28;20024;-70
2022/02/16 07:19:13;;;;;;;28.70;4.65;;;;;;;3.26;92.56;98056.50;5065820;28;20039;-69
2022/02/16 07:21:38;;;;;;;37.20;5.20;;;;;;;3.27;92.70;98057.34;5065831;28;20017;-69
2022/02/16 07:24:04;;;;;;;28.88;3.88;;;;;;;3.29;92.50;98065.88;5048579;28;20094;-70
2022/02/16 07:26:30;;;;;;;20.75;4.25;;;;;;;3.30;92.60;98058.16;5065832;28;20047;-73
2022/02/16 07:28:55;;;;;;;29.55;6.13;;;;;;;3.39;92.73;98046.88;5065242;28;20029;-73
2022/02/16 07:31:21;;;;;;;26.55;5.35;;;;;;;3.42;92.58;98046.81;5065444;28;20017;-72
2022/02/16 07:33:46;;;;;;;23.65;4.38;;;;;;;3.43;92.38;98042.56;5066020;28;20032;-70
2022/02/16 07:36:12;;;;;;;24.83;6.18;;;;;;;3.37;92.12;98040.94;5065386;28;20488;-72
2022/02/16 07:38:37;;;;;;;35.95;6.53;;;;;;;3.45;92.43;98044.22;5065722;28;20036;-72
2022/02/16 07:41:03;;;;;;;29.80;4.20;;;;;;;3.47;92.17;98042.47;5065759;28;20037;-72
2022/02/16 07:43:28;;;;;;;16.85;3.13;;;;;;;3.44;91.71;98034.84;5065674;28;20493;-72
2022/02/16 07:45:54;;;;;;;18.65;3.67;;;;;;;3.48;91.68;98027.94;5065830;28;20060;-72
2022/02/16 07:48:20;;;;;;;30.23;4.65;;;;;;;3.56;91.36;98032.94;5065388;28;20025;-72
2022/02/16 07:50:47;;;;;;;23.08;5.20;;;;;;;3.65;91.23;98037.03;5064961;28;20021;-72
2022/02/16 07:53:13;;;;;;;37.20;5.60;;;;;;;3.64;90.70;98031.06;5047727;28;20041;-74
2022/02/16 07:55:38;;;;;;;22.80;4.40;;;;;;;3.69;90.59;98018.97;5065419;28;20031;-76
2022/02/16 07:58:04;;;;;;;24.13;4.72;;;;;;;3.69;90.60;98024.13;5065024;28;20357;-74
2022/02/16 08:00:31;;;;;;;8.52;2.15;;;;;;;3.72;90.07;98026.63;5065313;28;20018;-74
2022/02/16 08:02:57;;;;;;;13.23;4.38;;;;;;;3.79;89.90;98014.53;5065446;28;20048;-74
2022/02/16 08:05:23;;;;;;;27.50;4.20;;;;;;;3.75;89.07;98023.16;5065081;28;20055;-76
2022/02/16 08:07:48;;;;;;;25.98;4.95;;;;;;;3.80;89.09;98017.94;5065001;28;20040;-76
2022/02/16 08:10:13;;;;;;;18.38;3.83;;;;;;;3.90;90.23;98019.44;5064995;28;20017;-75
2022/02/16 08:12:52;;;;;;;26.40;5.22;;;;;;;4.29;90.34;98008.38;5064993;28;20036;-75
2022/02/16 08:15:17;;;;;;;23.83;5.03;;;;;;;4.74;90.18;97996.25;5047052;28;20028;-74
2022/02/16 08:17:43;;;;;;;18.75;4.25;;;;;;;4.96;88.10;98001.75;5064873;28;20021;-72
2022/02/16 08:20:11;;;;;;;23.80;4.28;;;;;;;4.84;86.82;97996.88;5064499;28;20039;-73
2022/02/16 08:22:37;;;;;;;18.08;4.00;;;;;;;4.64;85.87;97987.91;5064838;28;20025;-73
2022/02/16 08:25:04;;;;;;;21.08;3.28;;;;;;;4.64;86.25;97989.63;5064556;28;20048;-74
2022/02/16 08:27:30;;;;;;;22.00;4.43;;;;;;;4.83;86.72;97987.47;5064413;28;20425;-73
2022/02/16 08:29:55;;;;;;;22.80;3.80;;;;;;;5.06;87.14;97979.19;5064586;28;20021;-74
2022/02/16 08:32:21;;;;;;;18.80;3.78;;;;;;;5.67;86.58;97985.34;5046893;28;20017;-73
2022/02/16 08:34:46;;;;;;;13.70;2.97;;;;;;;6.32;85.53;97974.09;5064468;28;20025;-71
2022/02/16 08:37:11;;;;;;;16.60;2.25;;;;;;;6.95;82.24;97967.84;5046752;28;20013;-72
2022/02/16 08:39:37;;;;;;;14.77;2.78;;;;;;;7.45;81.47;97963.59;5046389;28;20480;-69
2022/02/16 08:42:03;;;;;;;13.18;3.70;;;;;;;7.84;79.34;97959.66;5064634;28;20036;-71
2022/02/16 08:44:30;;;;;;;13.85;3.03;;;;;;;8.07;78.30;97955.34;5064651;28;20032;-73
2022/02/16 08:46:55;;;;;;;20.83;4.13;;;;;;;8.25;78.87;97946.06;5064427;28;20392;-72
2022/02/16 08:49:21;;;;;;;16.80;5.63;;;;;;;8.42;75.55;97937.63;5064075;28;20044;-72
2022/02/16 08:51:46;;;;;;;8.77;2.60;;;;;;;8.33;75.15;97950.94;5064209;28;20025;-70
2022/02/16 08:54:11;;;;;;;6.75;1.70;;;;;;;8.09;75.11;97938.06;5064152;28;20098;-71
2022/02/16 08:56:38;;;;;;;17.08;3.80;;;;;;;7.92;73.79;97934.34;5063711;28;20044;-71
2022/02/16 08:59:04;;;;;;;9.57;1.95;;;;;;;7.55;75.35;97938.31;5063645;28;20017;-71
2022/02/16 09:01:31;;;;;;;13.43;3.00;;;;;;;7.15;76.40;97925.91;5063874;28;20361;-72
2022/02/16 09:04:01;;;;;;;18.88;3.17;;;;;;;7.13;77.69;97929.41;5064112;28;20036;-72
2022/02/16 09:06:27;;;;;;;22.35;3.75;;;;;;;7.12;78.12;97925.16;5063374;28;20424;-71
2022/02/16 09:08:53;;;;;;;29.85;4.13;;;;;;;6.85;77.78;97913.16;5063294;28;20055;-70
2022/02/16 09:11:19;;;;;;;21.85;4.70;;;;;;;6.32;78.24;97910.53;5063195;28;20272;-72
2022/02/16 09:13:44;;;;;;;32.03;3.80;;;;;;;6.02;79.56;97913.09;5045726;28;20059;-71
2022/02/16 09:16:10;;;;;;;22.88;4.68;;;;;;;5.80;79.39;97910.31;5063298;28;20044;-71
2022/02/16 09:18:36;;;;;;;21.42;4.38;;;;;;;5.58;80.52;97905.81;5045299;28;20032;-71
2022/02/16 09:21:05;;;;;;;32.75;4.72;;;;;;;5.50;81.25;97912.88;5062970;28;20017;-71
2022/02/16 09:23:33;;;;;;;25.40;4.47;;;;;;;5.39;82.22;97906.31;5063144;28;20078;-71
2022/02/16 09:25:58;;;;;;;27.83;4.70;;;;;;;5.32;82.44;97907.34;5063031;28;20052;-70
2022/02/16 09:28:23;;;;;;;23.63;4.72;;;;;;;5.15;82.35;97900.97;5063014;28;20028;-69
2022/02/16 09:30:49;;;;;;;24.45;4.75;;;;;;;5.02;82.78;97897.88;5062377;28;20401;-70
2022/02/16 09:33:14;;;;;;;35.03;4.80;;;;;;;4.90;83.07;97887.91;5062931;28;20035;-70
2022/02/16 09:35:40;;;;;;;33.88;4.88;;;;;;;4.88;83.72;97882.81;5062686;28;20025;-70
2022/02/16 09:38:05;;;;;;;27.52;6.07;;;;;;;4.87;83.55;97883.69;5062801;28;20017;-69
2022/02/16 09:40:30;;;;;;;16.55;2.80;;;;;;;4.82;83.69;97865.78;5062731;28;20371;-70
2022/02/16 09:43:00;;;;;;;17.02;3.25;;;;;;;4.78;84.26;97860.78;5062725;28;20049;-70
2022/02/16 09:45:30;;;;;;;25.95;3.80;;;;;;;4.78;84.21;97858.19;5062976;28;20040;-71
2022/02/16 09:47:55;;;;;;;27.13;3.95;;;;;;;4.82;84.73;97850.38;5062660;28;20031;-70
2022/02/16 09:50:22;;;;;;;18.48;3.53;;;;;;;4.82;84.26;97852.94;5062452;28;20044;-70
2022/02/16 09:52:48;;;;;;;19.05;3.42;;;;;;;4.77;84.49;97843.69;5062781;28;20077;-69
2022/02/16 09:55:13;;;;;;;30.17;4.78;;;;;;;4.83;84.62;97841.78;5063141;28;20055;-70
2022/02/16 09:57:39;;;;;;;25.90;3.92;;;;;;;4.91;84.91;97831.31;5044764;28;20430;-71
2022/02/16 10:00:07;;;;;;;24.50;4.80;;;;;;;4.91;84.72;97833.03;5062818;28;20532;-70
2022/02/16 10:02:40;;;;;;;31.15;5.90;;;;;;;4.89;85.34;97824.53;5044743;28;20017;-70
2022/02/16 10:05:08;;;;;;;24.58;5.03;;;;;;;4.95;86.08;97791.75;5062761;28;20021;-72
2022/02/16 10:07:36;;;;;;;35.30;6.15;;;;;;;5.11;85.03;97813.63;5062650;28;20036;-71
2022/02/16 10:10:23;;;;;;;29.80;4.47;;;;;;;4.87;85.35;97798.84;5062864;28;20025;-70
2022/02/16 10:12:56;;;;;;;18.35;4.28;;;;;;;4.95;85.83;97802.03;5062606;28;20491;-71
2022/02/16 10:15:35;;;;;;;21.35;4.80;;;;;;;5.08;85.63;97799.13;5062646;28;20029;-71
2022/02/16 10:18:13;;;;;;;16.25;4.25;;;;;;;5.03;86.01;97788.97;5062803;28;20043;-71
2022/02/16 10:20:38;;;;;;;31.67;4.10;;;;;;;5.02;86.07;97782.16;5062423;28;20037;-70
2022/02/16 10:23:04;;;;;;;18.52;3.55;;;;;;;5.04;86.67;97784.69;5062585;28;20051;-70
2022/02/16 10:25:34;;;;;;;24.05;5.45;;;;;;;5.14;86.97;97769.81;5062479;28;20101;-70
2022/02/16 10:28:29;;;;;;;25.30;4.07;;;;;;;5.42;85.62;97764.72;5062829;28;20017;-72
2022/02/16 10:30:56;;;;;;;25.27;4.07;;;;;;;5.41;85.66;97767.34;5049104;28;20037;-71
2022/02/16 10:33:35;;;;;;;21.25;3.10;;;;;;;5.29;84.75;97753.09;5062150;28;20037;-71
2022/02/16 10:36:06;;;;;;;24.25;4.60;;;;;;;5.25;85.21;97749.78;5062039;28;20043;-70
2022/02/16 10:38:51;;;;;;;17.15;4.45;;;;;;;5.33;85.87;97741.84;5062305;28;20052;-71
2022/02/16 10:41:17;;;;;;;19.85;2.97;;;;;;;5.31;85.53;97735.88;5062478;28;20369;-70
2022/02/16 10:43:42;;;;;;;20.20;3.53;;;;;;;5.24;85.14;97735.22;5064489;28;20543;-70
2022/02/16 10:46:18;;;;;;;20.30;5.03;;;;;;;5.23;85.27;97730.13;5065552;28;20029;-70
2022/02/16 10:48:43;;;;;;;27.58;7.07;;;;;;;5.19;84.45;97722.50;5065155;28;20092;-71
2022/02/16 10:51:18;;;;;;;26.33;4.93;;;;;;;5.04;84.51;97718.66;5046719;28;20110;-70
2022/02/16 10:53:44;;;;;;;30.42;4.18;;;;;;;5.02;84.82;97714.44;5065832;28;20032;-72
2022/02/16 10:56:10;;;;;;;21.98;4.53;;;;;;;5.00;85.26;97705.94;5065074;28;20095;-72
2022/02/16 10:58:36;;;;;;;32.38;6.80;;;;;;;5.00;85.37;97704.19;5064622;28;20037;-71
2022/02/16 11:01:01;;;;;;;22.30;4.68;;;;;;;5.04;85.54;97698.09;5065739;28;20033;-72
2022/02/16 11:03:39;;;;;;;33.33;4.35;;;;;;;4.99;85.42;97693.94;5065394;28;20063;-72
2022/02/16 11:06:10;;;;;;;19.95;4.50;;;;;;;5.01;85.83;97684.47;5065397;28;20078;-72
2022/02/16 11:08:36;;;;;;;18.05;4.63;;;;;;;4.93;85.71;97672.69;5065749;28;20048;-72
2022/02/16 11:11:03;;;;;;;18.38;3.83;;;;;;;4.98;85.26;97664.84;5064262;28;20051;-74
2022/02/16 11:13:33;;;;;;;30.13;5.82;;;;;;;4.96;84.75;97656.34;5065390;28;20033;-73
2022/02/16 11:16:00;;;;;;;15.88;4.45;;;;;;;4.91;83.87;97648.75;5065371;28;20039;-72
2022/02/16 11:18:28;;;;;;;26.95;5.13;;;;;;;4.74;84.69;97640.69;5065311;28;20092;-73
2022/02/16 11:21:07;;;;;;;18.17;3.90;;;;;;;4.71;85.04;97621.09;5064982;28;20024;-73
2022/02/16 11:23:38;;;;;;;17.38;4.40;;;;;;;4.73;85.25;97629.56;5065352;28;20025;-73
2022/02/16 11:26:30;;;;;;;13.50;3.22;;;;;;;4.75;85.63;97619.25;5064871;28;20049;-72
2022/02/16 11:29:01;;;;;;;18.13;3.97;;;;;;;4.74;85.16;97608.13;5064202;28;20041;-72
2022/02/16 11:31:33;;;;;;;22.63;3.55;;;;;;;4.71;85.33;97593.63;5046852;28;20032;-72